sensor_id;sensor_type;location;lat;lon;timestamp;P1;durP1;ratioP1;P2;durP2;ratioP2
60312;SDS011;46158;52.850;6.970;2023-05-31T00:00:33;4.80;;;2.20;;
60312;SDS011;46158;52.850;6.970;2023-05-31T00:02:59;5.97;;;2.40;;
60312;SDS011;46158;52.850;6.970;2023-05-31T00:05:26;5.40;;;2.33;;
60312;SDS011;46158;52.850;6.970;2023-05-31T00:07:54;6.72;;;2.65;;
60312;SDS011;46158;52.850;6.970;2023-05-31T00:10:20;4.95;;;2.30;;
60312;SDS011;46158;52.850;6.970;2023-05-31T00:12:49;6.68;;;2.60;;
60312;SDS011;46158;52.850;6.970;2023-05-31T00:15:15;4.03;;;2.30;;
60312;SDS011;46158;52.850;6.970;2023-05-31T00:17:43;3.78;;;2.28;;
60312;SDS011;46158;52.850;6.970;2023-05-31T00:20:09;4.72;;;2.38;;
60312;SDS011;46158;52.850;6.970;2023-05-31T00:22:38;3.95;;;2.20;;
60312;SDS011;46158;52.850;6.970;2023-05-31T00:25:04;4.20;;;2.30;;
60312;SDS011;46158;52.850;6.970;2023-05-31T00:27:30;5.88;;;2.60;;
60312;SDS011;46158;52.850;6.970;2023-05-31T00:29:57;5.03;;;2.42;;
60312;SDS011;46158;52.850;6.970;2023-05-31T00:32:23;5.65;;;2.45;;
60312;SDS011;46158;52.850;6.970;2023-05-31T00:34:55;3.95;;;2.30;;
60312;SDS011;46158;52.850;6.970;2023-05-31T00:37:21;4.95;;;2.38;;
60312;SDS011;46158;52.850;6.970;2023-05-31T00:39:47;4.63;;;2.45;;
60312;SDS011;46158;52.850;6.970;2023-05-31T00:42:13;5.32;;;2.40;;
60312;SDS011;46158;52.850;6.970;2023-05-31T00:44:39;4.57;;;2.30;;
60312;SDS011;46158;52.850;6.970;2023-05-31T00:47:05;6.70;;;2.67;;
60312;SDS011;46158;52.850;6.970;2023-05-31T00:49:31;3.40;;;2.33;;
60312;SDS011;46158;52.850;6.970;2023-05-31T00:52:04;5.18;;;2.40;;
60312;SDS011;46158;52.850;6.970;2023-05-31T00:54:36;5.72;;;2.30;;
60312;SDS011;46158;52.850;6.970;2023-05-31T00:57:07;5.47;;;2.33;;
60312;SDS011;46158;52.850;6.970;2023-05-31T00:59:33;4.65;;;2.33;;
60312;SDS011;46158;52.850;6.970;2023-05-31T01:02:04;7.80;;;2.88;;
60312;SDS011;46158;52.850;6.970;2023-05-31T01:04:32;5.57;;;2.50;;
60312;SDS011;46158;52.850;6.970;2023-05-31T01:07:01;6.22;;;2.60;;
60312;SDS011;46158;52.850;6.970;2023-05-31T01:09:42;6.25;;;2.50;;
60312;SDS011;46158;52.850;6.970;2023-05-31T01:12:20;4.97;;;2.45;;
60312;SDS011;46158;52.850;6.970;2023-05-31T01:18:08;6.05;;;2.60;;
60312;SDS011;46158;52.850;6.970;2023-05-31T01:20:37;5.25;;;2.38;;
60312;SDS011;46158;52.850;6.970;2023-05-31T01:28:50;5.65;;;2.42;;
60312;SDS011;46158;52.850;6.970;2023-05-31T01:31:20;6.35;;;2.50;;
60312;SDS011;46158;52.850;6.970;2023-05-31T01:33:47;3.97;;;2.30;;
60312;SDS011;46158;52.850;6.970;2023-05-31T01:36:16;7.68;;;2.50;;
60312;SDS011;46158;52.850;6.970;2023-05-31T01:38:45;6.45;;;2.40;;
60312;SDS011;46158;52.850;6.970;2023-05-31T01:41:13;5.05;;;2.42;;
60312;SDS011;46158;52.850;6.970;2023-05-31T01:43:43;5.45;;;2.50;;
60312;SDS011;46158;52.850;6.970;2023-05-31T01:46:14;6.05;;;2.50;;
60312;SDS011;46158;52.850;6.970;2023-05-31T01:48:42;6.03;;;2.33;;
60312;SDS011;46158;52.850;6.970;2023-05-31T01:51:10;5.65;;;2.50;;
60312;SDS011;46158;52.850;6.970;2023-05-31T01:53:39;4.88;;;2.40;;
60312;SDS011;46158;52.850;6.970;2023-05-31T01:56:08;7.82;;;2.70;;
60312;SDS011;46158;52.850;6.970;2023-05-31T01:58:40;5.28;;;2.47;;
60312;SDS011;46158;52.850;6.970;2023-05-31T02:01:09;6.82;;;2.65;;
60312;SDS011;46158;52.850;6.970;2023-05-31T02:03:38;5.05;;;2.40;;
60312;SDS011;46158;52.850;6.970;2023-05-31T02:06:06;4.15;;;2.40;;
60312;SDS011;46158;52.850;6.970;2023-05-31T02:08:32;4.57;;;2.40;;
60312;SDS011;46158;52.850;6.970;2023-05-31T02:11:00;5.00;;;2.50;;
60312;SDS011;46158;52.850;6.970;2023-05-31T02:13:27;5.85;;;2.67;;
60312;SDS011;46158;52.850;6.970;2023-05-31T02:15:55;8.52;;;2.83;;
60312;SDS011;46158;52.850;6.970;2023-05-31T02:18:21;5.65;;;2.63;;
60312;SDS011;46158;52.850;6.970;2023-05-31T02:20:52;6.20;;;2.58;;
60312;SDS011;46158;52.850;6.970;2023-05-31T02:23:19;6.57;;;2.78;;
60312;SDS011;46158;52.850;6.970;2023-05-31T02:25:45;5.30;;;2.90;;
60312;SDS011;46158;52.850;6.970;2023-05-31T02:28:12;4.10;;;2.42;;
60312;SDS011;46158;52.850;6.970;2023-05-31T02:31:03;7.20;;;2.63;;
60312;SDS011;46158;52.850;6.970;2023-05-31T02:33:28;3.47;;;2.30;;
60312;SDS011;46158;52.850;6.970;2023-05-31T02:35:57;5.43;;;2.53;;
60312;SDS011;46158;52.850;6.970;2023-05-31T02:38:23;5.28;;;2.40;;
60312;SDS011;46158;52.850;6.970;2023-05-31T02:40:50;4.78;;;2.33;;
60312;SDS011;46158;52.850;6.970;2023-05-31T02:43:16;4.93;;;2.50;;
60312;SDS011;46158;52.850;6.970;2023-05-31T02:45:45;4.20;;;2.42;;
60312;SDS011;46158;52.850;6.970;2023-05-31T02:48:14;5.72;;;2.50;;
60312;SDS011;46158;52.850;6.970;2023-05-31T02:50:40;3.78;;;2.35;;
60312;SDS011;46158;52.850;6.970;2023-05-31T02:53:08;5.85;;;2.50;;
60312;SDS011;46158;52.850;6.970;2023-05-31T02:55:34;5.97;;;2.55;;
60312;SDS011;46158;52.850;6.970;2023-05-31T02:58:02;7.03;;;2.55;;
60312;SDS011;46158;52.850;6.970;2023-05-31T03:00:28;4.78;;;2.40;;
60312;SDS011;46158;52.850;6.970;2023-05-31T03:02:54;4.93;;;2.40;;
60312;SDS011;46158;52.850;6.970;2023-05-31T03:05:20;5.97;;;2.53;;
60312;SDS011;46158;52.850;6.970;2023-05-31T03:07:48;5.88;;;2.55;;
60312;SDS011;46158;52.850;6.970;2023-05-31T03:10:37;6.05;;;2.70;;
60312;SDS011;46158;52.850;6.970;2023-05-31T03:13:04;6.60;;;2.70;;
60312;SDS011;46158;52.850;6.970;2023-05-31T03:15:33;4.65;;;2.60;;
60312;SDS011;46158;52.850;6.970;2023-05-31T03:18:00;6.20;;;2.70;;
60312;SDS011;46158;52.850;6.970;2023-05-31T03:20:26;5.70;;;2.72;;
60312;SDS011;46158;52.850;6.970;2023-05-31T03:22:52;5.97;;;2.53;;
60312;SDS011;46158;52.850;6.970;2023-05-31T03:25:22;6.75;;;2.65;;
60312;SDS011;46158;52.850;6.970;2023-05-31T03:27:57;7.18;;;2.50;;
60312;SDS011;46158;52.850;6.970;2023-05-31T03:30:23;6.57;;;2.67;;
60312;SDS011;46158;52.850;6.970;2023-05-31T03:32:49;5.93;;;2.67;;
60312;SDS011;46158;52.850;6.970;2023-05-31T03:35:16;6.40;;;2.80;;
60312;SDS011;46158;52.850;6.970;2023-05-31T03:37:45;6.13;;;2.70;;
60312;SDS011;46158;52.850;6.970;2023-05-31T03:40:14;5.28;;;2.80;;
60312;SDS011;46158;52.850;6.970;2023-05-31T03:42:39;5.45;;;2.60;;
60312;SDS011;46158;52.850;6.970;2023-05-31T03:45:06;5.85;;;2.70;;
60312;SDS011;46158;52.850;6.970;2023-05-31T03:47:35;5.40;;;2.60;;
60312;SDS011;46158;52.850;6.970;2023-05-31T03:50:10;8.55;;;2.80;;
60312;SDS011;46158;52.850;6.970;2023-05-31T03:52:36;4.05;;;2.33;;
60312;SDS011;46158;52.850;6.970;2023-05-31T03:55:02;7.75;;;2.72;;
60312;SDS011;46158;52.850;6.970;2023-05-31T03:57:28;5.97;;;2.50;;
60312;SDS011;46158;52.850;6.970;2023-05-31T03:59:57;7.07;;;2.60;;
60312;SDS011;46158;52.850;6.970;2023-05-31T04:02:25;5.93;;;2.65;;
60312;SDS011;46158;52.850;6.970;2023-05-31T04:04:50;5.90;;;2.75;;
60312;SDS011;46158;52.850;6.970;2023-05-31T04:07:16;6.18;;;2.72;;
60312;SDS011;46158;52.850;6.970;2023-05-31T04:09:55;6.75;;;2.78;;
60312;SDS011;46158;52.850;6.970;2023-05-31T04:12:23;7.22;;;2.70;;
60312;SDS011;46158;52.850;6.970;2023-05-31T04:14:50;4.70;;;2.40;;
60312;SDS011;46158;52.850;6.970;2023-05-31T04:17:16;5.72;;;2.65;;
60312;SDS011;46158;52.850;6.970;2023-05-31T04:19:43;4.43;;;2.40;;
60312;SDS011;46158;52.850;6.970;2023-05-31T04:22:10;6.47;;;2.78;;
60312;SDS011;46158;52.850;6.970;2023-05-31T04:24:38;5.30;;;2.78;;
60312;SDS011;46158;52.850;6.970;2023-05-31T04:27:07;5.97;;;2.60;;
60312;SDS011;46158;52.850;6.970;2023-05-31T04:29:36;6.07;;;2.60;;
60312;SDS011;46158;52.850;6.970;2023-05-31T04:32:06;7.28;;;2.67;;
60312;SDS011;46158;52.850;6.970;2023-05-31T04:34:33;7.43;;;2.78;;
60312;SDS011;46158;52.850;6.970;2023-05-31T04:37:01;6.70;;;2.50;;
60312;SDS011;46158;52.850;6.970;2023-05-31T04:39:27;6.90;;;2.90;;
60312;SDS011;46158;52.850;6.970;2023-05-31T04:41:53;7.00;;;2.60;;
60312;SDS011;46158;52.850;6.970;2023-05-31T04:44:20;6.70;;;2.80;;
60312;SDS011;46158;52.850;6.970;2023-05-31T04:46:52;5.63;;;2.67;;
60312;SDS011;46158;52.850;6.970;2023-05-31T04:49:47;13.00;;;3.40;;
60312;SDS011;46158;52.850;6.970;2023-05-31T04:55:05;6.90;;;2.80;;
60312;SDS011;46158;52.850;6.970;2023-05-31T04:57:39;9.32;;;3.20;;
60312;SDS011;46158;52.850;6.970;2023-05-31T05:00:10;11.70;;;3.33;;
60312;SDS011;46158;52.850;6.970;2023-05-31T05:02:50;13.95;;;3.88;;
60312;SDS011;46158;52.850;6.970;2023-05-31T05:05:20;19.60;;;5.05;;
60312;SDS011;46158;52.850;6.970;2023-05-31T05:08:09;13.40;;;3.70;;
60312;SDS011;46158;52.850;6.970;2023-05-31T05:10:44;17.20;;;3.95;;
60312;SDS011;46158;52.850;6.970;2023-05-31T05:16:00;14.25;;;3.80;;
60312;SDS011;46158;52.850;6.970;2023-05-31T05:18:27;17.02;;;4.20;;
60312;SDS011;46158;52.850;6.970;2023-05-31T05:21:05;13.50;;;3.40;;
60312;SDS011;46158;52.850;6.970;2023-05-31T05:23:54;15.57;;;3.90;;
60312;SDS011;46158;52.850;6.970;2023-05-31T05:26:20;14.85;;;3.45;;
60312;SDS011;46158;52.850;6.970;2023-05-31T05:28:57;12.50;;;3.80;;
60312;SDS011;46158;52.850;6.970;2023-05-31T05:31:48;12.13;;;3.47;;
60312;SDS011;46158;52.850;6.970;2023-05-31T05:34:20;12.23;;;3.63;;
60312;SDS011;46158;52.850;6.970;2023-05-31T05:36:46;14.77;;;3.47;;
60312;SDS011;46158;52.850;6.970;2023-05-31T05:39:24;15.57;;;4.07;;
60312;SDS011;46158;52.850;6.970;2023-05-31T05:41:56;15.70;;;3.80;;
60312;SDS011;46158;52.850;6.970;2023-05-31T05:47:03;15.73;;;4.13;;
60312;SDS011;46158;52.850;6.970;2023-05-31T05:49:40;16.98;;;3.90;;
60312;SDS011;46158;52.850;6.970;2023-05-31T05:52:21;14.98;;;4.13;;
60312;SDS011;46158;52.850;6.970;2023-05-31T05:54:53;13.50;;;3.63;;
60312;SDS011;46158;52.850;6.970;2023-05-31T05:57:43;14.85;;;3.88;;
60312;SDS011;46158;52.850;6.970;2023-05-31T06:00:18;15.15;;;4.00;;
60312;SDS011;46158;52.850;6.970;2023-05-31T06:02:48;16.17;;;3.97;;
60312;SDS011;46158;52.850;6.970;2023-05-31T06:05:28;15.85;;;3.88;;
60312;SDS011;46158;52.850;6.970;2023-05-31T06:08:06;13.07;;;3.90;;
60312;SDS011;46158;52.850;6.970;2023-05-31T06:10:40;15.55;;;3.63;;
60312;SDS011;46158;52.850;6.970;2023-05-31T06:13:15;13.50;;;3.80;;
60312;SDS011;46158;52.850;6.970;2023-05-31T06:15:47;16.67;;;3.88;;
60312;SDS011;46158;52.850;6.970;2023-05-31T06:18:19;15.02;;;4.00;;
60312;SDS011;46158;52.850;6.970;2023-05-31T06:21:03;15.75;;;3.90;;
60312;SDS011;46158;52.850;6.970;2023-05-31T06:23:30;14.63;;;3.95;;
60312;SDS011;46158;52.850;6.970;2023-05-31T06:25:56;14.18;;;3.88;;
60312;SDS011;46158;52.850;6.970;2023-05-31T06:28:22;12.32;;;3.97;;
60312;SDS011;46158;52.850;6.970;2023-05-31T06:30:48;10.85;;;3.67;;
60312;SDS011;46158;52.850;6.970;2023-05-31T06:33:18;14.32;;;3.90;;
60312;SDS011;46158;52.850;6.970;2023-05-31T06:35:51;16.13;;;4.28;;
60312;SDS011;46158;52.850;6.970;2023-05-31T06:38:29;10.90;;;3.90;;
60312;SDS011;46158;52.850;6.970;2023-05-31T06:40:58;15.10;;;4.20;;
60312;SDS011;46158;52.850;6.970;2023-05-31T06:43:24;18.00;;;4.47;;
60312;SDS011;46158;52.850;6.970;2023-05-31T06:45:54;13.10;;;3.75;;
60312;SDS011;46158;52.850;6.970;2023-05-31T06:48:37;14.98;;;3.83;;
60312;SDS011;46158;52.850;6.970;2023-05-31T06:51:15;15.07;;;3.90;;
60312;SDS011;46158;52.850;6.970;2023-05-31T06:53:45;14.73;;;3.83;;
60312;SDS011;46158;52.850;6.970;2023-05-31T06:56:11;10.70;;;3.38;;
60312;SDS011;46158;52.850;6.970;2023-05-31T06:58:38;13.15;;;4.10;;
60312;SDS011;46158;52.850;6.970;2023-05-31T07:01:06;14.63;;;3.80;;
60312;SDS011;46158;52.850;6.970;2023-05-31T07:03:41;15.27;;;3.90;;
60312;SDS011;46158;52.850;6.970;2023-05-31T07:06:17;12.48;;;3.90;;
60312;SDS011;46158;52.850;6.970;2023-05-31T07:08:43;14.57;;;3.78;;
60312;SDS011;46158;52.850;6.970;2023-05-31T07:11:10;12.98;;;3.53;;
60312;SDS011;46158;52.850;6.970;2023-05-31T07:13:41;12.60;;;3.58;;
60312;SDS011;46158;52.850;6.970;2023-05-31T07:16:10;16.88;;;3.70;;
60312;SDS011;46158;52.850;6.970;2023-05-31T07:18:36;14.02;;;3.70;;
60312;SDS011;46158;52.850;6.970;2023-05-31T07:21:02;13.07;;;4.00;;
60312;SDS011;46158;52.850;6.970;2023-05-31T07:23:28;14.68;;;3.88;;
60312;SDS011;46158;52.850;6.970;2023-05-31T07:26:04;12.25;;;3.55;;
60312;SDS011;46158;52.850;6.970;2023-05-31T07:28:36;14.82;;;3.92;;
60312;SDS011;46158;52.850;6.970;2023-05-31T07:31:06;10.63;;;3.53;;
60312;SDS011;46158;52.850;6.970;2023-05-31T07:36:12;12.43;;;3.40;;
60312;SDS011;46158;52.850;6.970;2023-05-31T07:38:38;12.40;;;3.60;;
60312;SDS011;46158;52.850;6.970;2023-05-31T07:41:10;11.40;;;3.58;;
60312;SDS011;46158;52.850;6.970;2023-05-31T07:43:42;10.98;;;3.15;;
60312;SDS011;46158;52.850;6.970;2023-05-31T07:46:10;11.13;;;3.53;;
60312;SDS011;46158;52.850;6.970;2023-05-31T07:48:38;13.48;;;3.53;;
60312;SDS011;46158;52.850;6.970;2023-05-31T07:51:11;14.68;;;3.63;;
60312;SDS011;46158;52.850;6.970;2023-05-31T07:53:45;11.85;;;3.47;;
60312;SDS011;46158;52.850;6.970;2023-05-31T07:56:14;13.82;;;3.50;;
60312;SDS011;46158;52.850;6.970;2023-05-31T07:58:44;12.70;;;3.45;;
60312;SDS011;46158;52.850;6.970;2023-05-31T08:01:25;12.43;;;3.70;;
60312;SDS011;46158;52.850;6.970;2023-05-31T08:03:54;11.82;;;3.25;;
60312;SDS011;46158;52.850;6.970;2023-05-31T08:06:36;10.03;;;3.20;;
60312;SDS011;46158;52.850;6.970;2023-05-31T08:09:09;12.32;;;3.45;;
60312;SDS011;46158;52.850;6.970;2023-05-31T08:11:38;13.18;;;3.50;;
60312;SDS011;46158;52.850;6.970;2023-05-31T08:14:04;10.15;;;3.20;;
60312;SDS011;46158;52.850;6.970;2023-05-31T08:16:31;12.32;;;3.60;;
60312;SDS011;46158;52.850;6.970;2023-05-31T08:18:58;8.70;;;3.08;;
60312;SDS011;46158;52.850;6.970;2023-05-31T08:21:25;11.57;;;3.25;;
60312;SDS011;46158;52.850;6.970;2023-05-31T08:24:03;11.13;;;3.55;;
60312;SDS011;46158;52.850;6.970;2023-05-31T08:26:52;9.60;;;3.13;;
60312;SDS011;46158;52.850;6.970;2023-05-31T08:29:33;9.50;;;3.28;;
60312;SDS011;46158;52.850;6.970;2023-05-31T08:32:00;13.20;;;3.08;;
60312;SDS011;46158;52.850;6.970;2023-05-31T08:34:27;7.72;;;2.90;;
60312;SDS011;46158;52.850;6.970;2023-05-31T08:37:05;10.80;;;3.25;;
60312;SDS011;46158;52.850;6.970;2023-05-31T08:39:40;11.73;;;3.38;;
60312;SDS011;46158;52.850;6.970;2023-05-31T08:42:15;11.30;;;3.10;;
60312;SDS011;46158;52.850;6.970;2023-05-31T08:44:53;10.40;;;3.05;;
60312;SDS011;46158;52.850;6.970;2023-05-31T08:47:27;13.35;;;3.30;;
60312;SDS011;46158;52.850;6.970;2023-05-31T08:50:01;11.15;;;3.00;;
60312;SDS011;46158;52.850;6.970;2023-05-31T08:52:53;4.68;;;2.70;;
60312;SDS011;46158;52.850;6.970;2023-05-31T08:55:19;9.75;;;3.22;;
60312;SDS011;46158;52.850;6.970;2023-05-31T08:57:48;12.05;;;3.20;;
60312;SDS011;46158;52.850;6.970;2023-05-31T09:00:19;11.38;;;3.13;;
60312;SDS011;46158;52.850;6.970;2023-05-31T09:02:56;9.15;;;3.33;;
60312;SDS011;46158;52.850;6.970;2023-05-31T09:05:24;11.13;;;3.22;;
60312;SDS011;46158;52.850;6.970;2023-05-31T09:07:50;10.57;;;3.28;;
60312;SDS011;46158;52.850;6.970;2023-05-31T09:10:20;8.98;;;3.25;;
60312;SDS011;46158;52.850;6.970;2023-05-31T09:12:49;8.27;;;2.90;;
60312;SDS011;46158;52.850;6.970;2023-05-31T09:15:15;7.57;;;2.95;;
60312;SDS011;46158;52.850;6.970;2023-05-31T09:17:47;9.07;;;2.90;;
60312;SDS011;46158;52.850;6.970;2023-05-31T09:20:13;12.70;;;3.10;;
60312;SDS011;46158;52.850;6.970;2023-05-31T09:22:39;6.28;;;2.65;;
60312;SDS011;46158;52.850;6.970;2023-05-31T09:25:05;8.55;;;3.00;;
60312;SDS011;46158;52.850;6.970;2023-05-31T09:27:41;8.32;;;3.13;;
60312;SDS011;46158;52.850;6.970;2023-05-31T09:30:08;10.55;;;3.28;;
60312;SDS011;46158;52.850;6.970;2023-05-31T09:32:55;9.18;;;2.85;;
60312;SDS011;46158;52.850;6.970;2023-05-31T09:35:31;8.25;;;2.90;;
60312;SDS011;46158;52.850;6.970;2023-05-31T09:38:03;10.70;;;3.50;;
60312;SDS011;46158;52.850;6.970;2023-05-31T09:40:33;7.60;;;2.83;;
60312;SDS011;46158;52.850;6.970;2023-05-31T09:43:02;10.48;;;3.10;;
60312;SDS011;46158;52.850;6.970;2023-05-31T09:45:33;5.80;;;2.67;;
60312;SDS011;46158;52.850;6.970;2023-05-31T09:48:01;6.80;;;2.70;;
60312;SDS011;46158;52.850;6.970;2023-05-31T09:50:39;7.43;;;2.83;;
60312;SDS011;46158;52.850;6.970;2023-05-31T09:53:08;8.57;;;3.03;;
60312;SDS011;46158;52.850;6.970;2023-05-31T09:55:48;7.93;;;2.70;;
60312;SDS011;46158;52.850;6.970;2023-05-31T09:58:27;6.85;;;2.72;;
60312;SDS011;46158;52.850;6.970;2023-05-31T10:01:10;7.28;;;2.63;;
60312;SDS011;46158;52.850;6.970;2023-05-31T10:03:37;7.28;;;2.72;;
60312;SDS011;46158;52.850;6.970;2023-05-31T10:06:10;5.38;;;2.60;;
60312;SDS011;46158;52.850;6.970;2023-05-31T10:09:10;7.70;;;2.63;;
60312;SDS011;46158;52.850;6.970;2023-05-31T10:11:41;8.73;;;3.00;;
60312;SDS011;46158;52.850;6.970;2023-05-31T10:14:31;7.07;;;2.88;;
60312;SDS011;46158;52.850;6.970;2023-05-31T10:17:17;5.03;;;2.60;;
60312;SDS011;46158;52.850;6.970;2023-05-31T10:20:15;5.60;;;2.63;;
60312;SDS011;46158;52.850;6.970;2023-05-31T10:22:45;7.95;;;2.72;;
60312;SDS011;46158;52.850;6.970;2023-05-31T10:25:43;6.90;;;2.58;;
60312;SDS011;46158;52.850;6.970;2023-05-31T10:28:24;9.63;;;2.80;;
60312;SDS011;46158;52.850;6.970;2023-05-31T10:31:10;7.95;;;2.80;;
60312;SDS011;46158;52.850;6.970;2023-05-31T10:33:37;7.38;;;2.75;;
60312;SDS011;46158;52.850;6.970;2023-05-31T10:36:12;7.90;;;2.92;;
60312;SDS011;46158;52.850;6.970;2023-05-31T10:38:50;7.10;;;2.53;;
60312;SDS011;46158;52.850;6.970;2023-05-31T10:41:24;5.93;;;2.55;;
60312;SDS011;46158;52.850;6.970;2023-05-31T10:44:11;7.30;;;2.70;;
60312;SDS011;46158;52.850;6.970;2023-05-31T10:46:47;6.22;;;2.53;;
60312;SDS011;46158;52.850;6.970;2023-05-31T10:49:21;6.88;;;2.78;;
60312;SDS011;46158;52.850;6.970;2023-05-31T10:51:50;9.05;;;2.88;;
60312;SDS011;46158;52.850;6.970;2023-05-31T10:54:25;9.38;;;3.20;;
60312;SDS011;46158;52.850;6.970;2023-05-31T10:56:56;7.00;;;2.75;;
60312;SDS011;46158;52.850;6.970;2023-05-31T10:59:29;7.60;;;2.67;;
60312;SDS011;46158;52.850;6.970;2023-05-31T11:02:11;7.78;;;2.60;;
60312;SDS011;46158;52.850;6.970;2023-05-31T11:04:40;9.70;;;2.70;;
60312;SDS011;46158;52.850;6.970;2023-05-31T11:07:16;6.68;;;2.90;;
60312;SDS011;46158;52.850;6.970;2023-05-31T11:09:56;6.45;;;2.80;;
60312;SDS011;46158;52.850;6.970;2023-05-31T11:12:35;8.30;;;2.80;;
60312;SDS011;46158;52.850;6.970;2023-05-31T11:15:03;6.90;;;2.72;;
60312;SDS011;46158;52.850;6.970;2023-05-31T11:17:39;9.23;;;2.55;;
60312;SDS011;46158;52.850;6.970;2023-05-31T11:20:19;8.65;;;3.00;;
60312;SDS011;46158;52.850;6.970;2023-05-31T11:26:23;6.60;;;2.77;;
60312;SDS011;46158;52.850;6.970;2023-05-31T11:28:56;6.63;;;2.63;;
60312;SDS011;46158;52.850;6.970;2023-05-31T11:35:01;7.65;;;2.42;;
60312;SDS011;46158;52.850;6.970;2023-05-31T11:37:40;4.25;;;2.50;;
60312;SDS011;46158;52.850;6.970;2023-05-31T11:40:23;6.18;;;2.83;;
60312;SDS011;46158;52.850;6.970;2023-05-31T11:43:01;9.95;;;2.70;;
60312;SDS011;46158;52.850;6.970;2023-05-31T11:45:32;6.78;;;2.90;;
60312;SDS011;46158;52.850;6.970;2023-05-31T11:48:07;4.07;;;2.45;;
60312;SDS011;46158;52.850;6.970;2023-05-31T11:50:43;9.73;;;2.75;;
60312;SDS011;46158;52.850;6.970;2023-05-31T11:53:10;7.18;;;2.63;;
60312;SDS011;46158;52.850;6.970;2023-05-31T11:55:54;7.05;;;2.60;;
60312;SDS011;46158;52.850;6.970;2023-05-31T11:58:29;6.75;;;2.70;;
60312;SDS011;46158;52.850;6.970;2023-05-31T12:01:14;6.75;;;2.40;;
60312;SDS011;46158;52.850;6.970;2023-05-31T12:03:41;5.07;;;2.45;;
60312;SDS011;46158;52.850;6.970;2023-05-31T12:06:12;10.45;;;3.00;;
60312;SDS011;46158;52.850;6.970;2023-05-31T12:08:38;10.75;;;3.15;;
60312;SDS011;46158;52.850;6.970;2023-05-31T12:11:04;9.05;;;2.90;;
60312;SDS011;46158;52.850;6.970;2023-05-31T12:13:37;7.10;;;3.03;;
60312;SDS011;46158;52.850;6.970;2023-05-31T12:16:12;8.48;;;2.90;;
60312;SDS011;46158;52.850;6.970;2023-05-31T12:18:47;9.23;;;2.83;;
60312;SDS011;46158;52.850;6.970;2023-05-31T12:21:13;7.22;;;3.28;;
60312;SDS011;46158;52.850;6.970;2023-05-31T12:23:55;10.60;;;3.10;;
60312;SDS011;46158;52.850;6.970;2023-05-31T12:26:23;11.35;;;3.53;;
60312;SDS011;46158;52.850;6.970;2023-05-31T12:28:52;11.82;;;3.17;;
60312;SDS011;46158;52.850;6.970;2023-05-31T12:32:10;10.23;;;3.40;;
60312;SDS011;46158;52.850;6.970;2023-05-31T12:34:35;12.15;;;3.40;;
60312;SDS011;46158;52.850;6.970;2023-05-31T12:37:06;10.85;;;3.40;;
60312;SDS011;46158;52.850;6.970;2023-05-31T12:39:45;11.30;;;3.90;;
60312;SDS011;46158;52.850;6.970;2023-05-31T12:42:36;11.07;;;3.30;;
60312;SDS011;46158;52.850;6.970;2023-05-31T12:45:08;11.70;;;3.55;;
60312;SDS011;46158;52.850;6.970;2023-05-31T12:47:37;13.23;;;3.77;;
60312;SDS011;46158;52.850;6.970;2023-05-31T12:50:09;14.30;;;3.90;;
60312;SDS011;46158;52.850;6.970;2023-05-31T12:56:11;14.85;;;4.07;;
60312;SDS011;46158;52.850;6.970;2023-05-31T12:58:40;12.85;;;3.80;;
60312;SDS011;46158;52.850;6.970;2023-05-31T13:01:06;12.00;;;4.00;;
60312;SDS011;46158;52.850;6.970;2023-05-31T13:03:34;13.73;;;3.70;;
60312;SDS011;46158;52.850;6.970;2023-05-31T13:06:00;14.55;;;3.70;;
60312;SDS011;46158;52.850;6.970;2023-05-31T13:08:54;11.48;;;3.50;;
60312;SDS011;46158;52.850;6.970;2023-05-31T13:11:40;11.50;;;3.60;;
60312;SDS011;46158;52.850;6.970;2023-05-31T13:14:07;12.95;;;3.75;;
60312;SDS011;46158;52.850;6.970;2023-05-31T13:16:53;10.48;;;3.50;;
60312;SDS011;46158;52.850;6.970;2023-05-31T13:19:20;13.73;;;3.95;;
60312;SDS011;46158;52.850;6.970;2023-05-31T13:22:02;11.80;;;3.50;;
60312;SDS011;46158;52.850;6.970;2023-05-31T13:24:36;10.50;;;3.55;;
60312;SDS011;46158;52.850;6.970;2023-05-31T13:27:13;11.35;;;3.30;;
60312;SDS011;46158;52.850;6.970;2023-05-31T13:29:42;12.73;;;3.30;;
60312;SDS011;46158;52.850;6.970;2023-05-31T13:32:38;11.18;;;3.50;;
60312;SDS011;46158;52.850;6.970;2023-05-31T13:35:22;8.23;;;3.33;;
60312;SDS011;46158;52.850;6.970;2023-05-31T13:38:02;10.88;;;3.20;;
60312;SDS011;46158;52.850;6.970;2023-05-31T13:40:28;9.27;;;3.28;;
60312;SDS011;46158;52.850;6.970;2023-05-31T13:43:06;9.85;;;3.30;;
60312;SDS011;46158;52.850;6.970;2023-05-31T13:45:54;11.85;;;3.20;;
60312;SDS011;46158;52.850;6.970;2023-05-31T13:48:25;11.77;;;3.60;;
60312;SDS011;46158;52.850;6.970;2023-05-31T13:53:57;10.90;;;3.30;;
60312;SDS011;46158;52.850;6.970;2023-05-31T13:56:36;11.85;;;3.30;;
60312;SDS011;46158;52.850;6.970;2023-05-31T13:59:05;14.07;;;3.50;;
60312;SDS011;46158;52.850;6.970;2023-05-31T14:01:38;9.90;;;3.03;;
60312;SDS011;46158;52.850;6.970;2023-05-31T14:04:34;8.32;;;3.10;;
60312;SDS011;46158;52.850;6.970;2023-05-31T14:07:02;12.27;;;3.33;;
60312;SDS011;46158;52.850;6.970;2023-05-31T14:09:28;9.13;;;3.13;;
60312;SDS011;46158;52.850;6.970;2023-05-31T14:14:54;9.60;;;3.25;;
60312;SDS011;46158;52.850;6.970;2023-05-31T14:17:24;10.70;;;3.05;;
60312;SDS011;46158;52.850;6.970;2023-05-31T14:20:04;7.38;;;2.90;;
60312;SDS011;46158;52.850;6.970;2023-05-31T14:22:41;9.55;;;3.00;;
60312;SDS011;46158;52.850;6.970;2023-05-31T14:25:16;10.55;;;3.30;;
60312;SDS011;46158;52.850;6.970;2023-05-31T14:28:09;12.63;;;3.25;;
60312;SDS011;46158;52.850;6.970;2023-05-31T14:30:45;9.95;;;3.13;;
60312;SDS011;46158;52.850;6.970;2023-05-31T14:33:20;8.30;;;3.00;;
60312;SDS011;46158;52.850;6.970;2023-05-31T14:35:58;9.57;;;3.00;;
60312;SDS011;46158;52.850;6.970;2023-05-31T14:38:30;8.60;;;3.08;;
60312;SDS011;46158;52.850;6.970;2023-05-31T14:40:57;9.45;;;3.15;;
60312;SDS011;46158;52.850;6.970;2023-05-31T14:44:09;12.00;;;2.92;;
60312;SDS011;46158;52.850;6.970;2023-05-31T14:46:23;8.55;;;3.08;;
60312;SDS011;46158;52.850;6.970;2023-05-31T14:49:18;8.93;;;3.13;;
60312;SDS011;46158;52.850;6.970;2023-05-31T14:51:53;6.13;;;2.70;;
60312;SDS011;46158;52.850;6.970;2023-05-31T14:54:33;7.28;;;2.80;;
60312;SDS011;46158;52.850;6.970;2023-05-31T14:57:28;8.70;;;3.17;;
60312;SDS011;46158;52.850;6.970;2023-05-31T14:59:57;11.55;;;3.10;;
60312;SDS011;46158;52.850;6.970;2023-05-31T15:02:25;11.07;;;3.20;;
60312;SDS011;46158;52.850;6.970;2023-05-31T15:04:58;7.72;;;3.10;;
60312;SDS011;46158;52.850;6.970;2023-05-31T15:07:27;10.20;;;2.90;;
60312;SDS011;46158;52.850;6.970;2023-05-31T15:09:57;7.95;;;2.70;;
60312;SDS011;46158;52.850;6.970;2023-05-31T15:12:27;7.80;;;2.85;;
60312;SDS011;46158;52.850;6.970;2023-05-31T15:14:54;9.30;;;2.80;;
60312;SDS011;46158;52.850;6.970;2023-05-31T15:17:24;34.05;;;15.30;;
60312;SDS011;46158;52.850;6.970;2023-05-31T15:19:50;30.00;;;13.23;;
60312;SDS011;46158;52.850;6.970;2023-05-31T15:22:23;24.73;;;9.57;;
60312;SDS011;46158;52.850;6.970;2023-05-31T15:24:59;27.10;;;9.98;;
60312;SDS011;46158;52.850;6.970;2023-05-31T15:27:26;24.77;;;10.45;;
60312;SDS011;46158;52.850;6.970;2023-05-31T15:32:32;23.75;;;8.88;;
60312;SDS011;46158;52.850;6.970;2023-05-31T15:34:58;21.55;;;9.00;;
60312;SDS011;46158;52.850;6.970;2023-05-31T15:37:23;22.15;;;8.18;;
60312;SDS011;46158;52.850;6.970;2023-05-31T15:39:49;20.30;;;7.47;;
60312;SDS011;46158;52.850;6.970;2023-05-31T15:42:18;20.77;;;7.00;;
60312;SDS011;46158;52.850;6.970;2023-05-31T15:44:53;29.17;;;12.02;;
60312;SDS011;46158;52.850;6.970;2023-05-31T15:47:20;22.65;;;9.18;;
60312;SDS011;46158;52.850;6.970;2023-05-31T15:49:46;27.08;;;9.65;;
60312;SDS011;46158;52.850;6.970;2023-05-31T15:52:42;26.30;;;11.02;;